Time;durP1;ratioP1;P1;durP2;ratioP2;P2;SDS_P1;SDS_P2;PMS_P1;PMS_P2;Temp;Humidity;BMP_temperature;BMP_pressure;BME280_temperature;BME280_humidity;BME280_pressure;Samples;Min_cycle;Max_cycle;Signal;HPM_P1;HPM_P2
2022/06/01 00:00:11;;;;;;;7.43;4.80;;;;;;;;;;4994408;28;20113;-52
2022/06/01 00:02:38;;;;;;;7.47;4.47;;;;;;;;;;4994749;28;20085;-52
2022/06/01 00:05:06;;;;;;;8.93;3.95;;;;;;;;;;4994739;28;20057;-55
2022/06/01 00:07:34;;;;;;;9.32;5.10;;;;;;;;;;4994863;28;20058;-56
2022/06/01 00:10:01;;;;;;;7.80;4.30;;;;;;;;;;4994655;28;20046;-56
2022/06/01 00:12:29;;;;;;;8.30;4.32;;;;;;;;;;4994325;28;20042;-55
2022/06/01 00:14:56;;;;;;;6.32;3.85;;;;;;;;;;4994326;28;20058;-54
2022/06/01 00:17:24;;;;;;;8.88;3.75;;;;;;;;;;4994520;28;20054;-53
2022/06/01 00:19:51;;;;;;;6.10;3.00;;;;;;;;;;4994315;28;20057;-52
2022/06/01 00:22:18;;;;;;;5.25;3.00;;;;;;;;;;4994211;28;20484;-57
2022/06/01 00:24:47;;;;;;;10.18;3.25;;;;;;;;;;4994259;28;20538;-55
2022/06/01 00:27:15;;;;;;;4.97;2.88;;;;;;;;;;4994279;28;20078;-56
2022/06/01 00:29:42;;;;;;;6.25;3.00;;;;;;;;;;4994320;28;20518;-54
2022/06/01 00:32:12;;;;;;;4.00;2.63;;;;;;;;;;4994226;28;20050;-55
2022/06/01 00:34:39;;;;;;;7.05;3.10;;;;;;;;;;4994437;28;20046;-56
2022/06/01 00:37:08;;;;;;;4.90;3.33;;;;;;;;;;4994080;28;20495;-56
2022/06/01 00:39:35;;;;;;;5.88;2.88;;;;;;;;;;4993894;28;20060;-55
2022/06/01 00:42:18;;;;;;;6.15;3.00;;;;;;;;;;4993925;28;20053;-56
2022/06/01 00:44:45;;;;;;;4.63;2.58;;;;;;;;;;4994245;28;20050;-55
2022/06/01 00:47:12;;;;;;;4.25;2.25;;;;;;;;;;4993875;28;20050;-54
2022/06/01 00:49:43;;;;;;;4.35;2.35;;;;;;;;;;4994049;28;20073;-54
2022/06/01 00:52:11;;;;;;;4.80;2.63;;;;;;;;;;4993727;28;20499;-53
2022/06/01 00:54:38;;;;;;;4.38;2.47;;;;;;;;;;4993495;28;20130;-53
2022/06/01 00:57:10;;;;;;;5.20;2.60;;;;;;;;;;4993108;28;20415;-55
2022/06/01 00:59:42;;;;;;;7.10;3.10;;;;;;;;;;4977971;28;20488;-56
2022/06/01 01:02:10;;;;;;;6.93;3.03;;;;;;;;;;4974098;28;20117;-54
2022/06/01 01:04:39;;;;;;;5.50;3.05;;;;;;;;;;4991681;28;20047;-55
2022/06/01 01:07:09;;;;;;;5.75;3.20;;;;;;;;;;4993814;28;20050;-53
2022/06/01 01:09:36;;;;;;;5.45;2.80;;;;;;;;;;4993373;28;20139;-53
2022/06/01 01:12:06;;;;;;;5.68;2.92;;;;;;;;;;4993237;28;20093;-51
2022/06/01 01:14:37;;;;;;;5.43;2.92;;;;;;;;;;4993501;28;20089;-53
2022/06/01 01:17:06;;;;;;;5.30;2.78;;;;;;;;;;4993255;28;20050;-58
2022/06/01 01:19:36;;;;;;;4.95;2.97;;;;;;;;;;4993253;28;20054;-55
2022/06/01 01:22:28;;;;;;;5.28;3.15;;;;;;;;;;4992998;28;20054;-55
2022/06/01 01:25:19;;;;;;;5.45;3.35;;;;;;;;;;4990853;28;20141;-51
2022/06/01 01:27:47;;;;;;;7.13;3.20;;;;;;;;;;4992665;28;20053;-58
2022/06/01 01:30:26;;;;;;;5.00;2.90;;;;;;;;;;4993387;28;20050;-56
2022/06/01 01:32:53;;;;;;;4.85;2.80;;;;;;;;;;4992730;28;20054;-57
2022/06/01 01:35:21;;;;;;;7.13;3.20;;;;;;;;;;4993356;28;20046;-52
2022/06/01 01:37:49;;;;;;;4.97;2.88;;;;;;;;;;4992722;28;20546;-55
2022/06/01 01:40:18;;;;;;;6.13;3.10;;;;;;;;;;4993328;28;20085;-57
2022/06/01 01:42:45;;;;;;;6.10;3.25;;;;;;;;;;4992697;28;20058;-55
2022/06/01 01:45:18;;;;;;;5.85;3.08;;;;;;;;;;4993289;28;20081;-55
2022/06/01 01:47:44;;;;;;;6.53;3.55;;;;;;;;;;4992986;28;20121;-53
2022/06/01 01:50:12;;;;;;;6.10;3.40;;;;;;;;;;4993669;28;20050;-56
2022/06/01 01:52:39;;;;;;;6.25;3.63;;;;;;;;;;4992288;28;20094;-53
2022/06/01 01:55:15;;;;;;;6.85;3.25;;;;;;;;;;4994164;28;20458;-55
2022/06/01 01:57:50;;;;;;;7.45;3.50;;;;;;;;;;4993667;28;20081;-54
2022/06/01 02:00:22;;;;;;;10.05;3.90;;;;;;;;;;4974288;28;20058;-54
2022/06/01 02:02:55;;;;;;;6.50;3.50;;;;;;;;;;4978130;28;20043;-56
2022/06/01 02:08:26;;;;;;;5.90;3.47;;;;;;;;;;4992362;28;20054;-56
2022/06/01 02:13:45;;;;;;;5.85;3.72;;;;;;;;;;4992453;28;20092;-51
2022/06/01 02:16:12;;;;;;;6.25;3.80;;;;;;;;;;4992120;28;20057;-55
2022/06/01 02:18:44;;;;;;;6.82;4.03;;;;;;;;;;4993060;28;20074;-57
2022/06/01 02:21:15;;;;;;;8.95;5.35;;;;;;;;;;4992314;28;20043;-56
2022/06/01 02:23:41;;;;;;;6.97;4.55;;;;;;;;;;4993013;28;20097;-56
2022/06/01 02:26:09;;;;;;;7.45;4.30;;;;;;;;;;4992592;28;20056;-57
2022/06/01 02:28:40;;;;;;;7.03;4.55;;;;;;;;;;4992912;28;20520;-57
2022/06/01 02:31:09;;;;;;;7.03;4.13;;;;;;;;;;4992202;28;20100;-53
2022/06/01 02:33:36;;;;;;;8.13;4.55;;;;;;;;;;4992540;28;20082;-55
2022/06/01 02:36:05;;;;;;;6.40;3.90;;;;;;;;;;4991874;28;20129;-55
2022/06/01 02:38:36;;;;;;;8.20;4.80;;;;;;;;;;4992304;28;20054;-56
2022/06/01 02:41:03;;;;;;;7.95;5.70;;;;;;;;;;4991831;28;20105;-54
2022/06/01 02:43:30;;;;;;;7.82;4.88;;;;;;;;;;4992809;28;20073;-52
2022/06/01 02:45:57;;;;;;;8.30;4.50;;;;;;;;;;4992036;28;20133;-55
2022/06/01 02:48:25;;;;;;;7.85;5.07;;;;;;;;;;4992403;28;20058;-54
2022/06/01 02:50:52;;;;;;;9.55;5.03;;;;;;;;;;4991813;28;20415;-53
2022/06/01 02:53:19;;;;;;;8.68;5.00;;;;;;;;;;4992136;28;20389;-56
2022/06/01 02:55:46;;;;;;;9.90;5.03;;;;;;;;;;4992123;28;20054;-55
2022/06/01 02:58:13;;;;;;;7.88;4.53;;;;;;;;;;4987916;28;20129;-50
2022/06/01 03:00:40;;;;;;;8.40;5.00;;;;;;;;;;4983374;28;20428;-53
2022/06/01 03:03:09;;;;;;;7.70;4.25;;;;;;;;;;4991788;28;20124;-57
2022/06/01 03:05:40;;;;;;;7.68;5.10;;;;;;;;;;4991959;28;20415;-53
2022/06/01 03:08:08;;;;;;;11.85;4.47;;;;;;;;;;4990726;28;20061;-51
2022/06/01 03:10:35;;;;;;;7.57;4.45;;;;;;;;;;4991981;28;20525;-52
2022/06/01 03:13:04;;;;;;;7.28;4.13;;;;;;;;;;4991705;28;20468;-53
2022/06/01 03:15:31;;;;;;;6.82;3.85;;;;;;;;;;4992296;28;20141;-51
2022/06/01 03:17:58;;;;;;;7.50;4.43;;;;;;;;;;4991919;28;20046;-55
2022/06/01 03:20:29;;;;;;;8.02;4.47;;;;;;;;;;4993014;28;20049;-53
2022/06/01 03:22:58;;;;;;;7.75;4.40;;;;;;;;;;4995373;28;20388;-51
2022/06/01 03:25:25;;;;;;;9.00;4.25;;;;;;;;;;4995310;28;20479;-54
2022/06/01 03:27:53;;;;;;;7.22;4.20;;;;;;;;;;4995209;28;20043;-54
2022/06/01 03:30:21;;;;;;;8.93;4.60;;;;;;;;;;4994808;28;20050;-59
2022/06/01 03:32:49;;;;;;;9.43;4.47;;;;;;;;;;4994950;28;20042;-54
2022/06/01 03:35:18;;;;;;;6.88;4.13;;;;;;;;;;4995273;28;20042;-55
2022/06/01 03:37:45;;;;;;;7.68;4.70;;;;;;;;;;4994986;28;20101;-51
2022/06/01 03:40:16;;;;;;;7.07;4.57;;;;;;;;;;4995120;28;20054;-54
2022/06/01 03:42:43;;;;;;;9.27;5.65;;;;;;;;;;4994730;28;20046;-58
2022/06/01 03:47:55;;;;;;;11.43;6.93;;;;;;;;;;4994584;28;20076;-54
2022/06/01 03:50:23;;;;;;;16.02;9.13;;;;;;;;;;4994588;28;20056;-55
2022/06/01 03:52:50;;;;;;;16.98;9.57;;;;;;;;;;4994889;28;20140;-52
2022/06/01 03:55:19;;;;;;;19.50;10.88;;;;;;;;;;4995030;28;20050;-55
2022/06/01 03:57:46;;;;;;;20.05;9.93;;;;;;;;;;4993956;28;20050;-53
2022/06/01 04:00:17;;;;;;;17.58;9.65;;;;;;;;;;4977592;28;20054;-52
2022/06/01 04:02:44;;;;;;;16.58;9.88;;;;;;;;;;4986299;28;20503;-56
2022/06/01 04:05:11;;;;;;;17.92;9.77;;;;;;;;;;4994722;28;20088;-54
2022/06/01 04:07:38;;;;;;;17.98;9.48;;;;;;;;;;4994819;28;20100;-58
2022/06/01 04:10:05;;;;;;;19.17;10.02;;;;;;;;;;4994375;28;20117;-53
2022/06/01 04:12:34;;;;;;;19.05;10.40;;;;;;;;;;4994239;28;20050;-54
2022/06/01 04:15:00;;;;;;;19.48;9.80;;;;;;;;;;4994322;28;20105;-52
2022/06/01 04:17:27;;;;;;;20.98;9.82;;;;;;;;;;4994452;28;20046;-52
2022/06/01 04:19:54;;;;;;;17.30;9.05;;;;;;;;;;4994306;28;20074;-56
2022/06/01 04:22:21;;;;;;;16.23;9.68;;;;;;;;;;4993981;28;20054;-53
2022/06/01 04:24:49;;;;;;;15.32;8.65;;;;;;;;;;4994390;28;20046;-55
2022/06/01 04:27:16;;;;;;;11.55;7.70;;;;;;;;;;4994314;28;20057;-54
2022/06/01 04:29:44;;;;;;;11.65;6.70;;;;;;;;;;4984914;28;20042;-55
2022/06/01 04:32:14;;;;;;;8.27;5.15;;;;;;;;;;4994042;28;20050;-52
2022/06/01 04:34:41;;;;;;;8.20;5.27;;;;;;;;;;4994081;28;20054;-56
2022/06/01 04:37:08;;;;;;;10.77;5.97;;;;;;;;;;4994242;28;20046;-55
2022/06/01 04:39:35;;;;;;;11.73;6.95;;;;;;;;;;4993864;28;20112;-55
2022/06/01 04:42:01;;;;;;;11.27;6.72;;;;;;;;;;4993976;28;20050;-52
2022/06/01 04:44:28;;;;;;;12.88;7.30;;;;;;;;;;4993916;28;20097;-56
2022/06/01 04:46:56;;;;;;;14.40;9.45;;;;;;;;;;4993696;28;20532;-55
2022/06/01 04:49:23;;;;;;;18.73;10.32;;;;;;;;;;4993876;28;20056;-56
2022/06/01 04:51:50;;;;;;;13.80;9.32;;;;;;;;;;4991971;28;20460;-56
2022/06/01 04:54:17;;;;;;;11.02;7.13;;;;;;;;;;4993808;28;20451;-53
2022/06/01 04:56:44;;;;;;;11.48;7.60;;;;;;;;;;4993724;28;20104;-52
2022/06/01 04:59:11;;;;;;;12.27;8.38;;;;;;;;;;4983520;28;20050;-54
2022/06/01 05:01:37;;;;;;;10.88;7.70;;;;;;;;;;4993311;28;20046;-52
2022/06/01 05:04:06;;;;;;;12.18;7.63;;;;;;;;;;4993819;28;20058;-55
2022/06/01 05:06:32;;;;;;;12.77;7.57;;;;;;;;;;4993706;28;20050;-52
2022/06/01 05:08:59;;;;;;;11.73;7.40;;;;;;;;;;4993826;28;20101;-53
2022/06/01 05:11:26;;;;;;;9.95;6.68;;;;;;;;;;4992366;28;20050;-57
2022/06/01 05:13:53;;;;;;;10.75;5.63;;;;;;;;;;4994150;28;20050;-52
2022/06/01 05:16:20;;;;;;;12.07;7.22;;;;;;;;;;4993462;28;20042;-52
2022/06/01 05:18:47;;;;;;;12.90;6.97;;;;;;;;;;4993448;28;20054;-55
2022/06/01 05:21:15;;;;;;;9.77;6.43;;;;;;;;;;4992912;28;20117;-52
2022/06/01 05:23:41;;;;;;;9.43;5.53;;;;;;;;;;4993353;28;20097;-55
2022/06/01 05:26:08;;;;;;;8.80;5.82;;;;;;;;;;4993387;28;20046;-55
2022/06/01 05:28:35;;;;;;;8.68;5.75;;;;;;;;;;4993728;28;20078;-54
2022/06/01 05:31:05;;;;;;;9.48;5.47;;;;;;;;;;4992693;28;20104;-54
2022/06/01 05:33:32;;;;;;;10.60;5.68;;;;;;;;;;4993020;28;20042;-55
2022/06/01 05:35:59;;;;;;;8.48;5.43;;;;;;;;;;4993431;28;20050;-54
2022/06/01 05:38:27;;;;;;;9.07;5.30;;;;;;;;;;4993066;28;20050;-52
2022/06/01 05:40:54;;;;;;;8.95;5.43;;;;;;;;;;4992849;28;20121;-54
2022/06/01 05:43:21;;;;;;;11.40;5.40;;;;;;;;;;4992523;28;20050;-53
2022/06/01 05:45:49;;;;;;;8.40;5.45;;;;;;;;;;4992962;28;20100;-52
2022/06/01 05:48:17;;;;;;;8.52;5.65;;;;;;;;;;4991994;28;20046;-56
2022/06/01 05:50:44;;;;;;;8.18;5.60;;;;;;;;;;4991986;28;20109;-52
2022/06/01 05:53:11;;;;;;;9.95;5.40;;;;;;;;;;4992721;28;20050;-54
2022/06/01 05:55:40;;;;;;;9.15;5.75;;;;;;;;;;4992690;28;20487;-55
2022/06/01 05:58:14;;;;;;;10.30;5.65;;;;;;;;;;4989531;28;20050;-53
2022/06/01 06:00:41;;;;;;;9.95;5.40;;;;;;;;;;4988656;28;20046;-54
2022/06/01 06:03:08;;;;;;;10.40;5.60;;;;;;;;;;4992567;28;20054;-55
2022/06/01 06:08:19;;;;;;;8.57;5.13;;;;;;;;;;4992576;28;20053;-52
2022/06/01 06:10:48;;;;;;;10.60;5.95;;;;;;;;;;4991730;28;20054;-55
2022/06/01 06:13:14;;;;;;;9.43;6.22;;;;;;;;;;4992435;28;20050;-53
2022/06/01 06:15:41;;;;;;;9.35;6.03;;;;;;;;;;4992779;28;20046;-53
2022/06/01 06:18:08;;;;;;;10.25;5.30;;;;;;;;;;4992485;28;20507;-50
2022/06/01 06:20:34;;;;;;;9.82;6.00;;;;;;;;;;4992312;28;20113;-56
2022/06/01 06:23:01;;;;;;;10.75;5.93;;;;;;;;;;4992032;28;20100;-51
2022/06/01 06:25:28;;;;;;;10.60;5.70;;;;;;;;;;4992401;28;20120;-53
2022/06/01 06:27:56;;;;;;;9.82;6.10;;;;;;;;;;4991572;28;20058;-56
2022/06/01 06:30:23;;;;;;;10.70;5.57;;;;;;;;;;4988604;28;20541;-57
2022/06/01 06:32:50;;;;;;;12.65;6.35;;;;;;;;;;4986553;28;20051;-54
2022/06/01 06:35:16;;;;;;;8.98;5.90;;;;;;;;;;4991976;28;20077;-52
2022/06/01 06:37:43;;;;;;;11.10;6.32;;;;;;;;;;4992422;28;20471;-56
2022/06/01 06:40:11;;;;;;;11.38;6.30;;;;;;;;;;4991494;28;20248;-53
2022/06/01 06:42:38;;;;;;;9.75;6.65;;;;;;;;;;4986144;28;20116;-54
2022/06/01 06:45:07;;;;;;;10.50;7.10;;;;;;;;;;4992176;28;20058;-51
2022/06/01 06:47:34;;;;;;;13.63;6.80;;;;;;;;;;4992381;28;20416;-55
2022/06/01 06:50:01;;;;;;;11.35;6.88;;;;;;;;;;4991963;28;20051;-53
2022/06/01 06:52:28;;;;;;;9.65;6.28;;;;;;;;;;4976639;28;20058;-51
2022/06/01 06:54:55;;;;;;;11.05;6.30;;;;;;;;;;4977822;28;20116;-55
2022/06/01 06:57:22;;;;;;;11.60;6.22;;;;;;;;;;4986955;28;20050;-54
2022/06/01 06:59:49;;;;;;;10.68;6.13;;;;;;;;;;4981631;28;20571;-53
2022/06/01 07:02:18;;;;;;;8.80;6.55;;;;;;;;;;4983829;28;20042;-55
2022/06/01 07:04:46;;;;;;;12.27;6.68;;;;;;;;;;4986992;28;20089;-55
2022/06/01 07:07:13;;;;;;;9.98;6.32;;;;;;;;;;4984389;28;20089;-51
2022/06/01 07:09:40;;;;;;;9.82;6.53;;;;;;;;;;4996018;28;20086;-54
2022/06/01 07:12:08;;;;;;;16.75;10.40;;;;;;;;;;4995323;28;20117;-55
2022/06/01 07:14:35;;;;;;;14.30;7.65;;;;;;;;;;4996748;28;20054;-54
2022/06/01 07:17:02;;;;;;;12.88;7.10;;;;;;;;;;4996421;28;20130;-56
2022/06/01 07:19:31;;;;;;;12.43;7.28;;;;;;;;;;4988940;28;20052;-54
2022/06/01 07:21:57;;;;;;;10.50;6.32;;;;;;;;;;4987963;28;20523;-52
2022/06/01 07:24:24;;;;;;;12.48;6.53;;;;;;;;;;4991182;28;20192;-52
2022/06/01 07:26:51;;;;;;;15.80;8.20;;;;;;;;;;4994514;28;20058;-54
2022/06/01 07:29:20;;;;;;;11.45;6.60;;;;;;;;;;4985224;28;20109;-56
2022/06/01 07:31:48;;;;;;;9.63;6.35;;;;;;;;;;4983813;28;20112;-56
2022/06/01 07:34:15;;;;;;;9.63;6.35;;;;;;;;;;4984378;28;20448;-54
2022/06/01 07:36:45;;;;;;;13.93;7.05;;;;;;;;;;4983323;28;20065;-55
2022/06/01 07:44:49;;;;;;;9.32;5.85;;;;;;;;;;4977491;28;20061;-56
2022/06/01 07:47:16;;;;;;;9.93;6.18;;;;;;;;;;4982551;28;20050;-62
2022/06/01 07:49:43;;;;;;;12.48;6.57;;;;;;;;;;4991755;28;20641;-61
2022/06/01 07:52:13;;;;;;;9.10;6.32;;;;;;;;;;4992593;28;20104;-66
2022/06/01 07:54:41;;;;;;;10.40;6.20;;;;;;;;;;4992758;28;20558;-66
2022/06/01 07:57:08;;;;;;;8.80;5.72;;;;;;;;;;4985571;28;20097;-58
2022/06/01 07:59:35;;;;;;;15.77;8.70;;;;;;;;;;4988159;28;20058;-56
2022/06/01 08:02:05;;;;;;;11.10;6.50;;;;;;;;;;4973573;28;20054;-51
2022/06/01 08:04:32;;;;;;;8.57;6.25;;;;;;;;;;4974855;28;20464;-54
2022/06/01 08:07:00;;;;;;;10.18;6.43;;;;;;;;;;4992788;28;20496;-55
2022/06/01 08:09:28;;;;;;;14.50;6.57;;;;;;;;;;4992829;28;20140;-52
2022/06/01 08:14:39;;;;;;;10.55;5.93;;;;;;;;;;4992921;28;20057;-54
2022/06/01 08:17:06;;;;;;;8.75;6.03;;;;;;;;;;4992574;28;20101;-52
2022/06/01 08:19:34;;;;;;;10.38;6.20;;;;;;;;;;4993061;28;20053;-55
2022/06/01 08:22:01;;;;;;;13.48;7.07;;;;;;;;;;4992504;28;20043;-56
2022/06/01 08:24:30;;;;;;;7.85;5.43;;;;;;;;;;4993080;28;20452;-64
2022/06/01 08:26:57;;;;;;;8.68;5.15;;;;;;;;;;4992974;28;20140;-53
2022/06/01 08:29:24;;;;;;;13.20;5.60;;;;;;;;;;4992405;28;20090;-56
2022/06/01 08:31:50;;;;;;;9.18;5.18;;;;;;;;;;4992034;28;20121;-61
2022/06/01 08:34:17;;;;;;;8.88;5.90;;;;;;;;;;4992783;28;20046;-60
2022/06/01 08:36:46;;;;;;;10.20;5.90;;;;;;;;;;4992060;28;20042;-60
2022/06/01 08:39:13;;;;;;;11.88;5.57;;;;;;;;;;4992329;28;20097;-59
2022/06/01 08:41:42;;;;;;;10.75;5.43;;;;;;;;;;4992228;28;20515;-64
2022/06/01 08:44:22;;;;;;;13.02;6.38;;;;;;;;;;4991816;28;20078;-51
2022/06/01 08:46:49;;;;;;;9.40;5.68;;;;;;;;;;4991925;28;20276;-49
2022/06/01 08:49:23;;;;;;;7.65;5.13;;;;;;;;;;4989957;28;20105;-50
2022/06/01 08:51:52;;;;;;;7.50;4.85;;;;;;;;;;4990906;28;20117;-53
2022/06/01 08:54:19;;;;;;;10.53;5.93;;;;;;;;;;4992346;28;20058;-49
2022/06/01 08:56:50;;;;;;;9.40;5.40;;;;;;;;;;4991015;28;20520;-50
2022/06/01 08:59:24;;;;;;;11.23;5.20;;;;;;;;;;4991048;28;20583;-51
2022/06/01 09:01:59;;;;;;;8.68;5.30;;;;;;;;;;4991564;28;20049;-53
2022/06/01 09:04:35;;;;;;;7.25;4.88;;;;;;;;;;4991857;28;20092;-52
2022/06/01 09:07:17;;;;;;;11.10;5.90;;;;;;;;;;4992081;28;20104;-53
2022/06/01 09:09:56;;;;;;;11.20;6.15;;;;;;;;;;4972134;28;20073;-50
2022/06/01 09:12:25;;;;;;;8.77;5.15;;;;;;;;;;4979487;28;20046;-50
2022/06/01 09:14:56;;;;;;;12.40;6.20;;;;;;;;;;4991987;28;20047;-52
2022/06/01 09:17:23;;;;;;;11.35;6.53;;;;;;;;;;4991248;28;20053;-51
2022/06/01 09:22:39;;;;;;;12.95;6.43;;;;;;;;;;4990722;28;20065;-54
2022/06/01 09:25:08;;;;;;;8.63;5.65;;;;;;;;;;4990365;28;20480;-50
2022/06/01 09:27:39;;;;;;;7.50;5.10;;;;;;;;;;4991200;28;20558;-52
2022/06/01 09:30:22;;;;;;;11.52;6.00;;;;;;;;;;4991016;28;20081;-52
2022/06/01 09:33:02;;;;;;;9.20;5.97;;;;;;;;;;4990567;28;20054;-49
2022/06/01 09:35:30;;;;;;;9.27;5.28;;;;;;;;;;4990203;28;20476;-52
2022/06/01 09:37:57;;;;;;;7.72;5.00;;;;;;;;;;4991317;28;20050;-49
2022/06/01 09:40:28;;;;;;;9.38;5.13;;;;;;;;;;4998158;28;20049;-55
2022/06/01 09:43:00;;;;;;;8.90;6.18;;;;;;;;;;4994586;28;20051;-52
2022/06/01 09:45:30;;;;;;;8.40;5.57;;;;;;;;;;4991134;28;20050;-52
2022/06/01 09:48:12;;;;;;;8.77;4.90;;;;;;;;;;4990491;28;20136;-50
2022/06/01 09:50:42;;;;;;;7.93;5.45;;;;;;;;;;4980692;28;20563;-51
2022/06/01 09:53:17;;;;;;;;;;;;;;;;;;4991323;28;20042;-51
2022/06/01 09:55:53;;;;;;;8.30;4.68;;;;;;;;;;4990906;28;19968;-53
2022/06/01 10:06:51;;;;;;;9.77;5.63;;;;;;;;;;4990799;28;20057;-51
2022/06/01 10:09:22;;;;;;;8.95;5.15;;;;;;;;;;4990865;28;20051;-53
2022/06/01 10:11:51;;;;;;;8.13;4.65;;;;;;;;;;5001557;28;20462;-54
2022/06/01 10:14:21;;;;;;;18.42;5.20;;;;;;;;;;5010096;28;20081;-50
2022/06/01 10:17:11;;;;;;;8.10;5.22;;;;;;;;;;5002954;28;20092;-49
2022/06/01 10:19:42;;;;;;;7.40;5.05;;;;;;;;;;4981181;28;20054;-52
2022/06/01 10:22:17;;;;;;;6.68;4.57;;;;;;;;;;4990667;28;20495;-52
2022/06/01 10:24:50;;;;;;;6.03;4.47;;;;;;;;;;4990658;28;20528;-52
2022/06/01 10:27:21;;;;;;;11.05;5.18;;;;;;;;;;4990272;28;20050;-51
2022/06/01 10:29:55;;;;;;;8.55;4.47;;;;;;;;;;4992243;28;20046;-53
2022/06/01 10:32:30;;;;;;;8.05;4.70;;;;;;;;;;4992943;28;20120;-51
2022/06/01 10:35:10;;;;;;;7.30;4.43;;;;;;;;;;4994418;28;20054;-53
2022/06/01 10:37:41;;;;;;;6.60;4.43;;;;;;;;;;4994112;28;20046;-51
2022/06/01 10:40:13;;;;;;;8.00;4.57;;;;;;;;;;4994379;28;20467;-51
2022/06/01 10:45:36;;;;;;;8.25;5.00;;;;;;;;;;4994553;28;20056;-53
2022/06/01 10:48:12;;;;;;;9.20;4.72;;;;;;;;;;4994571;28;20047;-50
2022/06/01 10:50:43;;;;;;;9.95;4.53;;;;;;;;;;4994098;28;20615;-55
2022/06/01 10:53:17;;;;;;;9.30;4.25;;;;;;;;;;4994106;28;20324;-53
2022/06/01 10:55:45;;;;;;;9.30;4.10;;;;;;;;;;4994354;28;20523;-52
2022/06/01 10:58:18;;;;;;;6.70;3.90;;;;;;;;;;4990400;28;20047;-51
2022/06/01 11:00:50;;;;;;;6.65;3.80;;;;;;;;;;4974308;28;20047;-53
2022/06/01 11:03:52;;;;;;;6.70;3.90;;;;;;;;;;4974639;28;20050;-51
2022/06/01 11:06:29;;;;;;;12.77;7.65;;;;;;;;;;4971079;28;20051;-52
2022/06/01 11:09:02;;;;;;;8.75;4.95;;;;;;;;;;4974380;28;20055;-54
2022/06/01 11:11:37;;;;;;;9.13;5.85;;;;;;;;;;4974520;28;20046;-53
2022/06/01 11:14:14;;;;;;;7.07;3.97;;;;;;;;;;4974718;28;20057;-56
2022/06/01 11:16:55;;;;;;;12.23;6.10;;;;;;;;;;4974643;28;20055;-49
2022/06/01 11:19:35;;;;;;;14.57;8.10;;;;;;;;;;4974347;28;20078;-51
2022/06/01 11:22:11;;;;;;;7.45;4.25;;;;;;;;;;4974044;28;20050;-55
2022/06/01 11:24:53;;;;;;;7.43;3.88;;;;;;;;;;4974242;28;20051;-54
2022/06/01 11:27:33;;;;;;;7.70;4.43;;;;;;;;;;4974210;28;20051;-53
2022/06/01 11:30:10;;;;;;;13.43;7.97;;;;;;;;;;4974096;28;20055;-51
2022/06/01 11:32:44;;;;;;;7.07;4.10;;;;;;;;;;4973808;28;20269;-52
2022/06/01 11:35:19;;;;;;;8.45;4.38;;;;;;;;;;4974217;28;20424;-52
2022/06/01 11:37:53;;;;;;;23.15;9.18;;;;;;;;;;4974009;28;20489;-54
2022/06/01 11:40:32;;;;;;;6.35;4.05;;;;;;;;;;4973609;28;20425;-52
2022/06/01 11:43:04;;;;;;;6.43;4.13;;;;;;;;;;4973740;28;20077;-50
2022/06/01 11:45:35;;;;;;;6.85;3.72;;;;;;;;;;4974026;28;20137;-50
2022/06/01 11:48:06;;;;;;;8.75;5.57;;;;;;;;;;4973998;28;20105;-49
2022/06/01 11:50:53;;;;;;;9.23;4.28;;;;;;;;;;4974215;28;20082;-51
2022/06/01 11:53:23;;;;;;;7.03;4.45;;;;;;;;;;4974161;28;20416;-48
2022/06/01 11:55:50;;;;;;;6.88;3.80;;;;;;;;;;4973898;28;20050;-52
2022/06/01 11:58:38;;;;;;;7.20;4.30;;;;;;;;;;4978360;28;20096;-50
2022/06/01 12:01:12;;;;;;;7.47;3.90;;;;;;;;;;4992708;28;20451;-49
2022/06/01 12:03:57;;;;;;;7.90;5.10;;;;;;;;;;4993484;28;20507;-54
2022/06/01 12:06:45;;;;;;;9.20;4.88;;;;;;;;;;4993196;28;20046;-50
2022/06/01 12:09:18;;;;;;;6.20;3.75;;;;;;;;;;4993116;28;20046;-51
2022/06/01 12:11:47;;;;;;;6.18;4.03;;;;;;;;;;4992581;28;20050;-49
2022/06/01 12:14:26;;;;;;;7.10;4.78;;;;;;;;;;4993160;28;20085;-52
2022/06/01 12:17:28;;;;;;;7.88;4.00;;;;;;;;;;4993280;28;20054;-52
2022/06/01 12:20:34;;;;;;;5.93;3.95;;;;;;;;;;4951160;29;20061;-54
2022/06/01 12:29:33;;;;;;;9.38;5.28;;;;;;;;;;4992702;28;20058;-50
2022/06/01 12:32:14;;;;;;;9.57;5.10;;;;;;;;;;4992512;28;20086;-51
2022/06/01 12:34:55;;;;;;;6.88;3.75;;;;;;;;;;4992390;28;20132;-52
2022/06/01 12:37:28;;;;;;;7.07;3.92;;;;;;;;;;4992521;28;20050;-48
2022/06/01 12:39:59;;;;;;;7.80;4.22;;;;;;;;;;4992814;28;20496;-51
2022/06/01 12:42:31;;;;;;;7.75;3.92;;;;;;;;;;4992478;28;20575;-50
2022/06/01 12:45:00;;;;;;;8.90;4.40;;;;;;;;;;4992109;28;20100;-54
2022/06/01 12:47:31;;;;;;;9.35;5.55;;;;;;;;;;4992275;28;20415;-49
2022/06/01 12:50:05;;;;;;;7.50;4.38;;;;;;;;;;4992224;28;20089;-56
2022/06/01 12:52:33;;;;;;;7.70;3.83;;;;;;;;;;4990973;28;20054;-52
2022/06/01 12:55:04;;;;;;;5.03;3.78;;;;;;;;;;4992385;28;20094;-54
2022/06/01 12:57:33;;;;;;;7.85;3.80;;;;;;;;;;4992378;28;20396;-53
2022/06/01 13:00:17;;;;;;;10.43;4.40;;;;;;;;;;4973652;28;20082;-52
2022/06/01 13:02:45;;;;;;;6.07;3.90;;;;;;;;;;4972561;28;20053;-52
2022/06/01 13:05:15;;;;;;;6.20;3.60;;;;;;;;;;4973185;28;20245;-49
2022/06/01 13:07:47;;;;;;;7.25;3.97;;;;;;;;;;4974921;28;20125;-52
2022/06/01 13:10:21;;;;;;;7.13;3.70;;;;;;;;;;4991437;28;20504;-58
2022/06/01 13:12:47;;;;;;;8.18;3.80;;;;;;;;;;4988871;28;20503;-56
2022/06/01 13:15:17;;;;;;;8.02;3.55;;;;;;;;;;4989974;28;20555;-50
2022/06/01 13:17:50;;;;;;;5.55;3.58;;;;;;;;;;4991654;28;20086;-55
2022/06/01 13:20:17;;;;;;;8.07;4.00;;;;;;;;;;4990340;28;20594;-54
2022/06/01 13:22:50;;;;;;;5.95;3.72;;;;;;;;;;4991348;28;20086;-51
2022/06/01 13:25:23;;;;;;;6.78;4.07;;;;;;;;;;4990407;28;20072;-51
2022/06/01 13:27:50;;;;;;;8.07;4.07;;;;;;;;;;4990934;28;20047;-55
2022/06/01 13:30:18;;;;;;;6.43;3.80;;;;;;;;;;4991109;28;20093;-53
2022/06/01 13:32:50;;;;;;;9.73;3.67;;;;;;;;;;4991088;28;20470;-54
2022/06/01 13:35:26;;;;;;;7.57;3.90;;;;;;;;;;4990239;28;20580;-53
2022/06/01 13:37:57;;;;;;;5.00;3.30;;;;;;;;;;4991153;28;20053;-52
2022/06/01 13:40:28;;;;;;;8.77;4.00;;;;;;;;;;4990904;28;20054;-53
2022/06/01 13:43:05;;;;;;;7.95;3.85;;;;;;;;;;4991095;28;20125;-50
2022/06/01 13:45:50;;;;;;;8.30;3.88;;;;;;;;;;4990945;28;20051;-55
2022/06/01 13:48:24;;;;;;;6.43;3.78;;;;;;;;;;4986952;28;20057;-53
2022/06/01 13:50:55;;;;;;;8.00;3.67;;;;;;;;;;4990698;28;20130;-52
2022/06/01 13:53:32;;;;;;;6.43;3.80;;;;;;;;;;4991039;28;20089;-55
2022/06/01 13:56:04;;;;;;;7.43;4.15;;;;;;;;;;4990833;28;20121;-50
2022/06/01 13:58:37;;;;;;;6.50;4.00;;;;;;;;;;4984551;28;20039;-55
2022/06/01 14:01:12;;;;;;;5.60;3.70;;;;;;;;;;4984329;28;20405;-51
2022/06/01 14:03:43;;;;;;;7.05;3.95;;;;;;;;;;4991395;28;20506;-50
2022/06/01 14:06:12;;;;;;;6.20;4.20;;;;;;;;;;4990683;28;20046;-53
2022/06/01 14:08:52;;;;;;;9.40;4.10;;;;;;;;;;4990920;28;20046;-54
2022/06/01 14:11:25;;;;;;;9.00;4.13;;;;;;;;;;4989673;28;20445;-50
2022/06/01 14:13:53;;;;;;;9.45;4.20;;;;;;;;;;4990889;28;20046;-52
2022/06/01 14:16:21;;;;;;;7.18;4.28;;;;;;;;;;4990157;28;20046;-54
2022/06/01 14:18:54;;;;;;;10.13;4.38;;;;;;;;;;4990942;28;20082;-52
2022/06/01 14:21:21;;;;;;;9.93;4.30;;;;;;;;;;4989912;28;20056;-53
2022/06/01 14:23:48;;;;;;;7.80;4.28;;;;;;;;;;4990578;28;20050;-52
2022/06/01 14:29:01;;;;;;;8.30;4.00;;;;;;;;;;4986807;28;20078;-49
2022/06/01 14:31:30;;;;;;;6.43;4.10;;;;;;;;;;4989302;28;20057;-54
2022/06/01 14:33:58;;;;;;;6.68;3.92;;;;;;;;;;4975638;28;20050;-53
2022/06/01 14:36:26;;;;;;;6.18;3.55;;;;;;;;;;4971453;28;20086;-51
2022/06/01 14:38:53;;;;;;;7.35;3.78;;;;;;;;;;4975204;28;20050;-50
2022/06/01 14:41:27;;;;;;;7.70;3.83;;;;;;;;;;4989574;28;20082;-51
2022/06/01 14:43:57;;;;;;;4.90;3.38;;;;;;;;;;4989757;28;20058;-52
2022/06/01 14:46:24;;;;;;;7.88;4.15;;;;;;;;;;4990848;28;20054;-54
2022/06/01 14:48:51;;;;;;;6.85;4.10;;;;;;;;;;4990563;28;20050;-55
2022/06/01 14:51:23;;;;;;;7.13;3.92;;;;;;;;;;4992506;28;20504;-51
2022/06/01 14:53:50;;;;;;;6.13;3.65;;;;;;;;;;4990111;28;20038;-56
2022/06/01 14:56:17;;;;;;;6.65;4.00;;;;;;;;;;4996831;28;20408;-63
2022/06/01 14:58:45;;;;;;;5.72;3.88;;;;;;;;;;4989843;28;20109;-64
2022/06/01 15:01:15;;;;;;;6.97;3.97;;;;;;;;;;4989904;28;20101;-50
2022/06/01 15:03:45;;;;;;;7.35;3.80;;;;;;;;;;4990277;28;20141;-54
2022/06/01 15:06:12;;;;;;;4.97;3.75;;;;;;;;;;4989722;28;20046;-55
2022/06/01 15:08:38;;;;;;;7.38;4.53;;;;;;;;;;4990570;28;20058;-52
2022/06/01 15:11:06;;;;;;;7.32;4.57;;;;;;;;;;4988485;28;20052;-52
2022/06/01 15:13:33;;;;;;;5.55;4.50;;;;;;;;;;4989646;28;20054;-53
2022/06/01 15:16:03;;;;;;;6.97;4.30;;;;;;;;;;5002502;28;20440;-54
2022/06/01 15:18:30;;;;;;;5.30;4.00;;;;;;;;;;4977103;28;20046;-50
2022/06/01 15:20:57;;;;;;;8.23;5.28;;;;;;;;;;4974096;28;20492;-49
2022/06/01 15:23:24;;;;;;;6.15;4.00;;;;;;;;;;4973966;28;20051;-56
2022/06/01 15:25:51;;;;;;;7.13;4.40;;;;;;;;;;4992303;28;20106;-54
2022/06/01 15:28:19;;;;;;;6.55;4.38;;;;;;;;;;4993980;28;20429;-54
2022/06/01 15:41:46;;;;;;;6.28;4.80;;;;;;;;;;4993368;28;20149;-53
2022/06/01 15:44:13;;;;;;;7.38;4.50;;;;;;;;;;4991737;28;20050;-49
2022/06/01 15:46:40;;;;;;;6.78;4.13;;;;;;;;;;4993108;28;20050;-54
2022/06/01 15:49:11;;;;;;;7.05;3.55;;;;;;;;;;4992885;28;20054;-53
2022/06/01 15:51:40;;;;;;;5.07;2.80;;;;;;;;;;4992901;28;20504;-55